createdAt,value
2022-11-27T00:01:22.352Z,4.10
2022-11-27T00:03:49.676Z,4.20
2022-11-27T00:06:19.850Z,4.20
2022-11-27T00:08:47.608Z,4.20
2022-11-27T00:11:19.932Z,4.20
2022-11-27T00:13:47.181Z,4.10
2022-11-27T00:16:15.480Z,4.10
2022-11-27T00:18:42.846Z,4.10
2022-11-27T00:21:15.866Z,4.00
2022-11-27T00:23:43.035Z,4.00
2022-11-27T00:26:10.755Z,4.10
2022-11-27T00:28:38.236Z,4.10
2022-11-27T00:31:22.957Z,4.10
2022-11-27T00:33:49.847Z,4.00
2022-11-27T00:36:17.044Z,4.10
2022-11-27T00:38:43.868Z,4.00
2022-11-27T00:41:20.359Z,4.00
2022-11-27T00:43:47.255Z,4.10
2022-11-27T00:46:21.665Z,4.00
2022-11-27T00:48:50.890Z,4.10
2022-11-27T00:51:20.126Z,4.10
2022-11-27T00:53:47.611Z,4.10
2022-11-27T00:56:35.756Z,4.00
2022-11-27T00:59:03.221Z,4.00
2022-11-27T01:01:33.092Z,4.00
2022-11-27T01:04:01.779Z,4.10
2022-11-27T01:06:30.243Z,4.10
2022-11-27T01:08:58.246Z,4.10
2022-11-27T01:11:31.662Z,4.20
2022-11-27T01:14:01.481Z,4.20
2022-11-27T01:16:30.428Z,4.20
2022-11-27T01:18:58.944Z,4.30
2022-11-27T01:21:27.934Z,4.30
2022-11-27T01:23:55.330Z,4.40
2022-11-27T01:26:22.648Z,4.30
2022-11-27T01:28:52.597Z,4.40
2022-11-27T01:31:22.478Z,4.40
2022-11-27T01:33:53.417Z,4.40
2022-11-27T01:36:20.635Z,4.50
2022-11-27T01:38:47.495Z,4.50
2022-11-27T01:41:23.444Z,4.60
2022-11-27T01:43:53.967Z,4.60
2022-11-27T01:46:33.229Z,4.60
2022-11-27T01:49:23.027Z,4.60
2022-11-27T01:52:00.743Z,4.60
2022-11-27T01:54:32.882Z,4.60
2022-11-27T01:57:04.727Z,4.60
2022-11-27T01:59:31.838Z,4.60
2022-11-27T02:01:59.009Z,4.60
2022-11-27T02:04:25.884Z,4.60
2022-11-27T02:06:53.590Z,4.60
2022-11-27T02:09:20.363Z,4.50
2022-11-27T02:12:05.755Z,4.60
2022-11-27T02:14:55.784Z,4.60
2022-11-27T02:17:49.433Z,4.60
2022-11-27T02:20:25.120Z,4.60
2022-11-27T02:22:51.839Z,4.60
2022-11-27T02:25:40.453Z,4.60
2022-11-27T02:28:34.633Z,4.60
2022-11-27T02:31:15.677Z,4.60
2022-11-27T02:33:47.835Z,4.60
2022-11-27T02:36:20.967Z,4.50
2022-11-27T02:39:10.844Z,4.50
2022-11-27T02:41:45.082Z,4.40
2022-11-27T02:44:13.177Z,4.50
2022-11-27T02:46:41.949Z,4.60
2022-11-27T02:49:16.611Z,4.60
2022-11-27T02:51:49.464Z,4.50
2022-11-27T02:54:22.117Z,4.40
2022-11-27T02:56:50.403Z,4.40
2022-11-27T02:59:20.210Z,4.30
2022-11-27T03:01:57.000Z,4.20
2022-11-27T03:04:46.831Z,4.10
2022-11-27T03:07:20.349Z,4.20
2022-11-27T03:09:49.773Z,4.10
2022-11-27T03:12:18.711Z,4.30
2022-11-27T03:14:46.720Z,4.20
2022-11-27T03:17:39.291Z,4.20
2022-11-27T03:20:22.493Z,4.20
2022-11-27T03:22:49.292Z,4.10
2022-11-27T03:25:16.203Z,4.20
2022-11-27T03:27:55.786Z,4.20
2022-11-27T03:30:22.611Z,4.20
2022-11-27T03:32:49.467Z,4.10
2022-11-27T03:35:19.919Z,4.10
2022-11-27T03:37:46.772Z,4.10
2022-11-27T03:40:14.404Z,4.10
2022-11-27T03:43:04.357Z,4.20
2022-11-27T03:45:57.127Z,4.20
2022-11-27T03:48:36.177Z,4.20
2022-11-27T03:51:25.225Z,4.20
2022-11-27T03:54:07.426Z,4.10
2022-11-27T03:56:43.301Z,4.10
2022-11-27T03:59:23.022Z,4.00
2022-11-27T04:01:50.429Z,4.10
2022-11-27T04:04:17.883Z,4.10
2022-11-27T04:06:44.725Z,4.10
2022-11-27T04:11:55.839Z,4.00
2022-11-27T04:14:22.597Z,3.90
2022-11-27T04:16:49.375Z,4.00
2022-11-27T04:19:16.153Z,3.80
2022-11-27T04:21:42.972Z,3.90
2022-11-27T04:24:09.826Z,3.80
2022-11-27T04:26:36.556Z,3.80
2022-11-27T04:29:03.331Z,3.80
2022-11-27T04:31:30.118Z,3.90
2022-11-27T04:33:57.531Z,3.80
2022-11-27T04:36:24.407Z,3.80
2022-11-27T04:38:51.183Z,3.80
2022-11-27T04:41:17.969Z,3.90
2022-11-27T04:43:44.753Z,3.90
2022-11-27T04:46:11.588Z,3.90
2022-11-27T04:48:38.396Z,3.80
2022-11-27T04:51:05.350Z,3.90
2022-11-27T04:53:32.184Z,3.80
2022-11-27T04:55:58.973Z,3.80
2022-11-27T04:58:25.737Z,3.80
2022-11-27T05:00:52.542Z,3.80
2022-11-27T05:03:19.377Z,3.80
2022-11-27T05:05:46.168Z,3.80
2022-11-27T05:08:12.946Z,3.70
2022-11-27T05:10:39.772Z,3.70
2022-11-27T05:13:06.498Z,3.60
2022-11-27T05:15:33.283Z,3.60
2022-11-27T05:18:00.080Z,3.70
2022-11-27T05:20:27.018Z,3.70
2022-11-27T05:22:53.960Z,3.60
2022-11-27T05:25:20.792Z,3.70
2022-11-27T05:27:47.549Z,3.70
2022-11-27T05:30:14.366Z,3.70
2022-11-27T05:32:41.159Z,3.80
2022-11-27T05:35:08.420Z,3.70
2022-11-27T05:37:35.231Z,3.70
2022-11-27T05:40:02.064Z,3.80
2022-11-27T05:42:28.957Z,3.70
2022-11-27T05:44:58.401Z,3.70
2022-11-27T05:47:25.900Z,3.70
2022-11-27T05:49:52.883Z,3.70
2022-11-27T05:52:19.712Z,3.80
2022-11-27T05:54:46.545Z,3.70
2022-11-27T05:57:13.328Z,3.80
2022-11-27T05:59:41.273Z,3.70
2022-11-27T06:02:08.185Z,3.70
2022-11-27T06:04:35.227Z,3.60
2022-11-27T06:07:02.138Z,3.50
2022-11-27T06:09:28.998Z,3.60
2022-11-27T06:11:55.905Z,3.60
2022-11-27T06:14:22.680Z,3.60
2022-11-27T06:16:49.641Z,3.60
2022-11-27T06:19:16.478Z,3.60
2022-11-27T06:21:43.252Z,3.60
2022-11-27T06:24:11.108Z,3.60
2022-11-27T06:26:37.914Z,3.60
2022-11-27T06:29:04.813Z,3.60
2022-11-27T06:31:33.462Z,3.70
2022-11-27T06:34:00.817Z,3.70
2022-11-27T06:36:30.540Z,3.50
2022-11-27T06:38:57.686Z,3.60
2022-11-27T06:41:25.979Z,3.60
2022-11-27T06:43:53.704Z,3.50
2022-11-27T06:46:22.783Z,3.60
2022-11-27T06:48:51.358Z,3.50
2022-11-27T06:51:21.775Z,3.50
2022-11-27T06:53:49.958Z,3.60
2022-11-27T06:56:19.478Z,3.60
2022-11-27T06:58:46.349Z,3.60
2022-11-27T07:01:16.053Z,3.50
2022-11-27T07:03:43.453Z,3.60
2022-11-27T07:06:12.521Z,3.60
2022-11-27T07:08:39.376Z,3.50
2022-11-27T07:11:08.732Z,3.60
2022-11-27T07:13:36.178Z,3.50
2022-11-27T07:16:05.479Z,3.60
2022-11-27T07:18:37.027Z,3.60
2022-11-27T07:21:04.456Z,3.70
2022-11-27T07:23:31.454Z,3.70
2022-11-27T07:25:58.756Z,3.60
2022-11-27T07:28:25.757Z,3.70
2022-11-27T07:30:56.809Z,3.70
2022-11-27T07:33:24.395Z,3.80
2022-11-27T07:35:58.068Z,3.80
2022-11-27T07:38:24.932Z,3.70
2022-11-27T07:40:53.822Z,3.80
2022-11-27T07:43:21.354Z,3.80
2022-11-27T07:45:48.206Z,3.80
2022-11-27T07:48:15.435Z,3.80
2022-11-27T07:50:42.382Z,3.80
2022-11-27T07:53:09.152Z,3.90
2022-11-27T07:55:38.912Z,3.80
2022-11-27T07:58:07.085Z,3.90
2022-11-27T08:00:35.137Z,3.80
2022-11-27T08:03:02.157Z,3.90
2022-11-27T08:05:29.654Z,3.90
2022-11-27T08:07:59.371Z,3.90
2022-11-27T08:10:26.398Z,3.90
2022-11-27T08:12:53.283Z,3.90
2022-11-27T08:15:20.082Z,3.90
2022-11-27T08:17:46.939Z,3.90
2022-11-27T08:20:13.796Z,3.90
2022-11-27T08:22:42.837Z,4.00
2022-11-27T08:25:09.744Z,4.00
2022-11-27T08:27:36.505Z,4.00
2022-11-27T08:30:04.492Z,4.00
2022-11-27T08:32:31.581Z,4.00
2022-11-27T08:34:58.385Z,4.00
2022-11-27T08:37:25.248Z,4.10
2022-11-27T08:39:52.028Z,4.10
2022-11-27T08:42:18.780Z,4.10
2022-11-27T08:44:45.587Z,4.10
2022-11-27T08:47:12.357Z,4.10
2022-11-27T08:49:42.511Z,4.10
2022-11-27T08:52:12.066Z,4.10
2022-11-27T08:54:38.957Z,4.10
2022-11-27T08:57:05.928Z,4.10
2022-11-27T08:59:32.701Z,4.20
2022-11-27T09:01:59.707Z,4.20
2022-11-27T09:04:26.571Z,4.30
2022-11-27T09:06:58.196Z,4.30
2022-11-27T09:09:25.597Z,4.30
2022-11-27T09:11:54.596Z,4.30
2022-11-27T09:14:21.459Z,4.20
2022-11-27T09:16:48.477Z,4.20
2022-11-27T09:19:15.312Z,4.30
2022-11-27T09:21:42.124Z,4.40
2022-11-27T09:24:09.355Z,4.40
2022-11-27T09:26:36.215Z,4.40
2022-11-27T09:29:03.062Z,4.40
2022-11-27T09:31:29.879Z,4.40
2022-11-27T09:33:58.000Z,4.30
2022-11-27T09:36:26.147Z,4.40
2022-11-27T09:38:53.344Z,4.20
2022-11-27T09:41:40.589Z,4.30
2022-11-27T09:44:29.612Z,4.30
2022-11-27T09:46:58.603Z,4.40
2022-11-27T09:49:43.232Z,4.40
2022-11-27T09:52:29.216Z,4.30
2022-11-27T09:55:03.225Z,4.30
2022-11-27T09:57:35.903Z,4.30
2022-11-27T10:00:10.339Z,4.30
2022-11-27T10:02:37.390Z,4.50
2022-11-27T10:05:25.421Z,4.50
2022-11-27T10:08:10.495Z,4.50
2022-11-27T10:10:56.026Z,4.40
2022-11-27T10:13:55.180Z,4.40
2022-11-27T10:16:24.853Z,4.40
2022-11-27T10:19:13.662Z,4.40
2022-11-27T10:21:52.391Z,4.40
2022-11-27T10:24:34.025Z,4.50
2022-11-27T10:27:02.073Z,4.60
2022-11-27T10:29:47.390Z,4.50
2022-11-27T10:32:52.862Z,4.50
2022-11-27T10:35:14.911Z,4.50
2022-11-27T10:38:09.116Z,4.60
2022-11-27T10:40:41.858Z,4.50
2022-11-27T10:43:23.696Z,4.50
2022-11-27T10:46:08.814Z,4.60
2022-11-27T10:48:35.607Z,4.60
2022-11-27T10:51:02.394Z,4.60
2022-11-27T10:53:34.959Z,4.60
2022-11-27T10:56:11.680Z,4.60
2022-11-27T10:58:55.066Z,4.60
2022-11-27T11:01:23.371Z,4.50
2022-11-27T11:03:50.799Z,4.60
2022-11-27T11:06:22.290Z,4.60
2022-11-27T11:09:02.590Z,4.60
2022-11-27T11:11:29.472Z,4.60
2022-11-27T11:13:56.247Z,4.70
2022-11-27T11:16:30.537Z,4.70
2022-11-27T11:19:00.336Z,4.80
2022-11-27T11:21:37.873Z,4.70
2022-11-27T11:24:12.291Z,4.70
2022-11-27T11:26:54.424Z,4.70
2022-11-27T11:29:30.661Z,4.80
2022-11-27T11:32:03.537Z,4.80
2022-11-27T11:34:31.609Z,4.80
2022-11-27T11:37:01.620Z,4.90
2022-11-27T11:39:31.780Z,4.80
2022-11-27T11:41:58.942Z,4.70
2022-11-27T11:44:35.581Z,4.70
2022-11-27T11:47:02.564Z,4.80
2022-11-27T11:49:33.293Z,4.70
2022-11-27T11:52:03.197Z,4.70
2022-11-27T11:54:48.261Z,4.70
2022-11-27T11:57:55.368Z,4.90
2022-11-27T12:00:30.152Z,4.80
2022-11-27T12:03:19.527Z,4.80
2022-11-27T12:06:05.035Z,4.70
2022-11-27T12:08:37.989Z,4.80
2022-11-27T12:11:16.335Z,4.80
2022-11-27T12:13:49.483Z,4.90
2022-11-27T12:16:34.903Z,5.00
2022-11-27T12:19:49.649Z,4.90
2022-11-27T12:22:54.255Z,4.80
2022-11-27T12:25:27.964Z,4.80
2022-11-27T12:28:18.754Z,4.80
2022-11-27T12:30:51.843Z,4.70
2022-11-27T12:33:44.009Z,4.80
2022-11-27T12:36:32.072Z,4.80
2022-11-27T12:39:24.466Z,4.70
2022-11-27T12:42:06.477Z,4.70
2022-11-27T12:45:00.418Z,4.70
2022-11-27T12:47:32.544Z,4.70
2022-11-27T12:50:10.023Z,4.70
2022-11-27T12:52:44.573Z,4.70
2022-11-27T12:55:28.962Z,4.70
2022-11-27T12:58:20.727Z,4.80
2022-11-27T13:00:49.501Z,4.80
2022-11-27T13:03:28.559Z,4.90
2022-11-27T13:06:09.985Z,4.80
2022-11-27T13:08:49.648Z,4.70
2022-11-27T13:11:23.679Z,4.70
2022-11-27T13:13:57.267Z,4.70
2022-11-27T13:16:31.101Z,4.60
2022-11-27T13:19:33.069Z,4.60
2022-11-27T13:22:03.453Z,4.60
2022-11-27T13:24:30.627Z,4.60
2022-11-27T13:27:17.191Z,4.60
2022-11-27T13:29:55.613Z,4.60
2022-11-27T13:32:29.026Z,4.60
2022-11-27T13:34:59.459Z,4.60
2022-11-27T13:37:39.648Z,4.60
2022-11-27T13:40:23.786Z,4.60
2022-11-27T13:42:53.630Z,4.70
2022-11-27T13:45:28.105Z,4.70
2022-11-27T13:47:57.280Z,4.70
2022-11-27T13:50:30.794Z,4.70
2022-11-27T13:53:06.269Z,4.60
2022-11-27T13:55:34.318Z,4.60
2022-11-27T13:58:02.549Z,4.70
2022-11-27T14:00:38.747Z,4.70
2022-11-27T14:03:07.800Z,4.70
2022-11-27T14:05:44.218Z,4.70
2022-11-27T14:08:23.283Z,4.70
2022-11-27T14:10:55.268Z,4.70
2022-11-27T14:13:32.745Z,4.70
2022-11-27T14:16:02.192Z,4.70
2022-11-27T14:18:30.803Z,4.60
2022-11-27T14:21:04.245Z,4.70
2022-11-27T14:23:36.930Z,4.60
2022-11-27T14:26:15.247Z,4.50
2022-11-27T14:29:01.100Z,4.60
2022-11-27T14:31:34.140Z,4.60
2022-11-27T14:34:15.577Z,4.50
2022-11-27T14:36:43.706Z,4.50
2022-11-27T14:39:29.609Z,4.60
2022-11-27T14:42:00.946Z,4.60
2022-11-27T14:44:28.577Z,4.50
2022-11-27T14:46:57.882Z,4.50
2022-11-27T14:49:27.313Z,4.50
2022-11-27T14:52:03.006Z,4.50
2022-11-27T14:54:35.424Z,4.50
2022-11-27T14:57:03.806Z,4.50
2022-11-27T14:59:30.583Z,4.50
2022-11-27T15:02:18.743Z,4.50
2022-11-27T15:04:47.154Z,4.50
2022-11-27T15:07:16.138Z,4.50
2022-11-27T15:09:49.751Z,4.40
2022-11-27T15:12:20.505Z,4.50
2022-11-27T15:15:08.988Z,4.50
2022-11-27T15:17:38.780Z,4.50
2022-11-27T15:20:21.376Z,4.50
2022-11-27T15:22:50.549Z,4.40
2022-11-27T15:25:29.677Z,4.40
2022-11-27T15:27:56.428Z,4.50
2022-11-27T15:30:23.858Z,4.60
2022-11-27T15:32:52.397Z,4.50
2022-11-27T15:35:25.946Z,4.50
2022-11-27T15:37:55.811Z,4.60
2022-11-27T15:40:43.389Z,4.60
2022-11-27T15:43:15.946Z,4.50
2022-11-27T15:45:44.161Z,4.40
2022-11-27T15:48:19.298Z,4.40
2022-11-27T15:50:51.446Z,4.50
2022-11-27T15:53:18.980Z,4.50
2022-11-27T15:55:45.942Z,4.50
2022-11-27T15:58:14.938Z,4.50
2022-11-27T16:00:42.367Z,4.50
2022-11-27T16:03:09.425Z,4.50
2022-11-27T16:05:36.315Z,4.50
2022-11-27T16:08:03.304Z,4.50
2022-11-27T16:10:30.097Z,4.50
2022-11-27T16:12:57.238Z,4.50
2022-11-27T16:15:28.745Z,4.50
2022-11-27T16:17:58.715Z,4.50
2022-11-27T16:20:27.166Z,4.50
2022-11-27T16:22:55.195Z,4.50
2022-11-27T16:25:21.956Z,4.40
2022-11-27T16:27:48.781Z,4.40
2022-11-27T16:30:16.801Z,4.50
2022-11-27T16:32:44.389Z,4.50
2022-11-27T16:35:11.357Z,4.40
2022-11-27T16:37:38.420Z,4.40
2022-11-27T16:40:06.823Z,4.40
2022-11-27T16:42:33.735Z,4.40
2022-11-27T16:45:00.569Z,4.40
2022-11-27T16:47:33.292Z,4.40
2022-11-27T16:50:01.107Z,4.50
2022-11-27T16:52:28.631Z,4.40
2022-11-27T16:54:56.690Z,4.50
2022-11-27T16:57:23.752Z,4.40
2022-11-27T16:59:51.003Z,4.50
2022-11-27T17:02:19.469Z,4.40
2022-11-27T17:04:46.321Z,4.50
2022-11-27T17:07:13.354Z,4.40
2022-11-27T17:09:40.566Z,4.50
2022-11-27T17:12:07.713Z,4.50
2022-11-27T17:14:35.615Z,4.40
2022-11-27T17:17:03.452Z,4.40
2022-11-27T17:19:30.948Z,4.40
2022-11-27T17:21:58.396Z,4.40
2022-11-27T17:24:36.462Z,4.40
2022-11-27T17:27:07.624Z,4.40
2022-11-27T17:29:36.546Z,4.40
2022-11-27T17:32:03.877Z,4.40
2022-11-27T17:34:31.227Z,4.40
2022-11-27T17:36:58.682Z,4.40
2022-11-27T17:39:26.972Z,4.30
2022-11-27T17:41:54.473Z,4.30
2022-11-27T17:44:21.335Z,4.40
2022-11-27T17:46:48.410Z,4.40
2022-11-27T17:49:16.381Z,4.40
2022-11-27T17:51:45.229Z,4.30
2022-11-27T17:54:14.509Z,4.30
2022-11-27T17:56:41.994Z,4.30
2022-11-27T17:59:10.684Z,4.40
2022-11-27T18:01:39.115Z,4.30
2022-11-27T18:04:06.382Z,4.30
2022-11-27T18:06:34.098Z,4.30
2022-11-27T18:09:01.684Z,4.40
2022-11-27T18:11:31.387Z,4.30
2022-11-27T18:14:01.933Z,4.30
2022-11-27T18:16:33.710Z,4.30
2022-11-27T18:19:08.411Z,4.30
2022-11-27T18:21:37.193Z,4.30
2022-11-27T18:27:09.512Z,4.20
2022-11-27T18:29:39.388Z,4.20
2022-11-27T18:32:06.931Z,4.20
2022-11-27T18:34:34.571Z,4.20
2022-11-27T18:37:01.803Z,4.30
2022-11-27T18:39:29.317Z,4.20
2022-11-27T18:41:56.615Z,4.20
2022-11-27T18:44:24.244Z,4.20
2022-11-27T18:46:51.640Z,4.20
2022-11-27T18:49:18.930Z,4.10
2022-11-27T18:51:47.308Z,4.10
2022-11-27T18:54:16.314Z,4.10
2022-11-27T18:56:43.546Z,4.10
2022-11-27T18:59:10.785Z,4.10
2022-11-27T19:01:42.249Z,4.00
2022-11-27T19:04:11.193Z,4.10
2022-11-27T19:06:39.083Z,4.00
2022-11-27T19:09:06.510Z,4.00
2022-11-27T19:11:34.240Z,4.00
2022-11-27T19:14:02.060Z,4.00
2022-11-27T19:16:36.181Z,4.00
2022-11-27T19:19:05.813Z,4.00
2022-11-27T19:21:35.271Z,4.00
2022-11-27T19:24:05.154Z,4.00
2022-11-27T19:26:35.634Z,4.00
2022-11-27T19:29:08.800Z,4.00
2022-11-27T19:31:39.233Z,4.00
2022-11-27T19:34:07.611Z,4.00
2022-11-27T19:36:36.293Z,3.90
2022-11-27T19:39:11.720Z,4.00
2022-11-27T19:41:39.080Z,3.90
2022-11-27T19:44:07.759Z,4.00
2022-11-27T19:46:37.987Z,3.90
2022-11-27T19:49:09.405Z,3.90
2022-11-27T19:51:38.946Z,4.00
2022-11-27T19:54:11.839Z,3.90
2022-11-27T19:56:40.478Z,3.90
2022-11-27T19:59:09.046Z,3.90
2022-11-27T20:01:37.208Z,3.90
2022-11-27T20:04:04.868Z,3.90
2022-11-27T20:06:33.104Z,4.00
2022-11-27T20:09:03.250Z,4.00
2022-11-27T20:11:34.886Z,3.90
2022-11-27T20:14:05.613Z,4.00
2022-11-27T20:16:34.837Z,3.90
2022-11-27T20:19:04.740Z,3.90
2022-11-27T20:21:34.197Z,4.00
2022-11-27T20:24:03.218Z,4.00
2022-11-27T20:26:30.806Z,4.00
2022-11-27T20:29:01.544Z,4.00
2022-11-27T20:31:32.010Z,3.90
2022-11-27T20:34:02.359Z,4.00
2022-11-27T20:36:32.720Z,3.90
2022-11-27T20:39:01.609Z,3.90
2022-11-27T20:41:30.313Z,4.00
2022-11-27T20:43:59.989Z,3.90
2022-11-27T20:46:29.284Z,3.90
2022-11-27T20:48:57.299Z,3.80
2022-11-27T20:51:27.862Z,3.70
2022-11-27T20:53:57.730Z,3.70
2022-11-27T20:56:25.926Z,3.70
2022-11-27T20:58:53.848Z,3.70
2022-11-27T21:01:40.990Z,3.70
2022-11-27T21:04:22.581Z,3.70
2022-11-27T21:06:50.562Z,3.70
2022-11-27T21:09:20.436Z,3.70
2022-11-27T21:11:47.890Z,3.70
2022-11-27T21:14:16.036Z,3.80
2022-11-27T21:16:46.735Z,3.80
2022-11-27T21:19:19.988Z,3.80
2022-11-27T21:21:47.829Z,3.80
2022-11-27T21:24:15.392Z,3.80
2022-11-27T21:26:43.376Z,3.70
2022-11-27T21:29:12.076Z,3.70
2022-11-27T21:31:45.127Z,3.80
2022-11-27T21:34:14.587Z,3.70
2022-11-27T21:36:41.415Z,3.70
2022-11-27T21:39:11.575Z,3.70
2022-11-27T21:41:38.965Z,3.70
2022-11-27T21:44:06.044Z,3.70
2022-11-27T21:46:33.262Z,3.70
2022-11-27T21:49:04.045Z,3.70
2022-11-27T21:51:31.388Z,3.70
2022-11-27T21:53:59.297Z,3.70
2022-11-27T21:56:28.217Z,3.70
2022-11-27T21:58:55.135Z,3.60
2022-11-27T22:01:24.158Z,3.70
2022-11-27T22:03:51.514Z,3.60
2022-11-27T22:06:18.633Z,3.60
2022-11-27T22:09:08.286Z,3.50
2022-11-27T22:11:38.820Z,3.50
2022-11-27T22:14:08.056Z,3.40
2022-11-27T22:16:42.940Z,3.40
2022-11-27T22:19:12.854Z,3.50
2022-11-27T22:21:39.651Z,3.50
2022-11-27T22:24:07.728Z,3.50
2022-11-27T22:26:34.528Z,3.50
2022-11-27T22:29:03.072Z,3.50
2022-11-27T22:31:31.307Z,3.50
2022-11-27T22:33:59.550Z,3.50
2022-11-27T22:36:34.194Z,3.50
2022-11-27T22:39:04.564Z,3.50
2022-11-27T22:41:35.288Z,3.50
2022-11-27T22:44:09.050Z,3.60
2022-11-27T22:46:36.857Z,3.60
2022-11-27T22:49:06.289Z,3.60
2022-11-27T22:51:35.502Z,3.50
2022-11-27T22:54:04.546Z,3.60
2022-11-27T22:56:32.636Z,3.60
2022-11-27T22:59:24.495Z,3.60
2022-11-27T23:01:47.379Z,3.60
2022-11-27T23:04:14.275Z,3.70
2022-11-27T23:06:41.130Z,3.60
2022-11-27T23:09:07.882Z,3.50
2022-11-27T23:11:34.728Z,3.60
2022-11-27T23:14:01.486Z,3.60
2022-11-27T23:16:28.311Z,3.60
2022-11-27T23:18:55.087Z,3.50
2022-11-27T23:21:23.470Z,3.50
2022-11-27T23:23:50.731Z,3.50
2022-11-27T23:26:20.000Z,3.40
2022-11-27T23:28:47.848Z,3.50
2022-11-27T23:31:36.672Z,3.50
2022-11-27T23:34:09.767Z,3.40
2022-11-27T23:36:37.088Z,3.40
2022-11-27T23:39:07.046Z,3.40
2022-11-27T23:41:33.844Z,3.40
2022-11-27T23:44:00.787Z,3.40
2022-11-27T23:46:29.582Z,3.40
2022-11-27T23:48:58.250Z,3.30
2022-11-27T23:51:27.578Z,3.30
2022-11-27T23:53:55.117Z,3.30
2022-11-27T23:56:25.292Z,3.30
2022-11-27T23:58:54.117Z,3.40
